Time;durP1;ratioP1;P1;durP2;ratioP2;P2;SDS_P1;SDS_P2;PMS_P1;PMS_P2;Temp;Humidity;BMP_temperature;BMP_pressure;BME280_temperature;BME280_humidity;BME280_pressure;Samples;Min_cycle;Max_cycle;Signal;HPM_P1;HPM_P2
2022/05/27 00:00:06;;;;;;;6.53;2.22;;;;;;;15.71;100.00;102270.69;1869154;76;21139;-73
2022/05/27 00:02:34;;;;;;;6.70;1.98;;;;;;;15.52;100.00;102271.41;1869226;76;21042;-74
2022/05/27 00:05:02;;;;;;;10.68;2.80;;;;;;;15.51;100.00;102270.56;1873603;76;21134;-74
2022/05/27 00:07:29;;;;;;;10.25;2.90;;;;;;;15.54;100.00;102269.30;1868637;76;21132;-74
2022/05/27 00:09:57;;;;;;;6.45;1.90;;;;;;;15.38;100.00;102263.11;1869334;76;21002;-73
2022/05/27 00:12:24;;;;;;;5.92;2.40;;;;;;;15.55;100.00;102259.78;1872949;76;21064;-73
2022/05/27 00:14:52;;;;;;;5.83;1.98;;;;;;;15.22;100.00;102258.25;1876505;76;21060;-73
2022/05/27 00:17:20;;;;;;;11.22;2.98;;;;;;;15.24;100.00;102260.41;1876307;76;21060;-74
2022/05/27 00:19:47;;;;;;;5.95;2.30;;;;;;;15.27;100.00;102265.62;1876248;76;21121;-74
2022/05/27 00:22:15;;;;;;;5.65;1.92;;;;;;;15.33;100.00;102255.74;1876297;76;21086;-73
2022/05/27 00:24:43;;;;;;;4.62;1.90;;;;;;;15.20;100.00;102267.30;1876126;76;21118;-73
2022/05/27 00:27:10;;;;;;;9.00;2.10;;;;;;;15.28;100.00;102260.87;1847685;77;21095;-73
2022/05/27 00:29:38;;;;;;;5.70;1.75;;;;;;;15.47;100.00;102257.99;1869105;76;21082;-73
2022/05/27 00:32:07;;;;;;;8.20;2.33;;;;;;;15.57;100.00;102260.67;1869105;76;21085;-73
2022/05/27 00:34:35;;;;;;;5.80;2.00;;;;;;;15.70;100.00;102262.89;1868762;76;21081;-73
2022/05/27 00:37:06;;;;;;;5.25;1.90;;;;;;;15.58;100.00;102262.40;1869126;76;21583;-73
2022/05/27 00:39:36;;;;;;;6.87;2.37;;;;;;;15.52;100.00;102262.34;1868475;75;21140;-73
2022/05/27 00:42:04;;;;;;;3.67;2.05;;;;;;;15.71;100.00;102255.14;1869056;76;21478;-73
2022/05/27 00:44:31;;;;;;;7.20;2.00;;;;;;;15.69;100.00;102260.75;1869458;76;21049;-73
2022/05/27 00:47:02;;;;;;;7.62;1.90;;;;;;;15.74;100.00;102260.34;1869133;76;21108;-73
2022/05/27 00:49:29;;;;;;;8.05;2.95;;;;;;;15.72;100.00;102254.30;1868371;76;21041;-74
2022/05/27 00:52:06;;;;;;;3.40;1.90;;;;;;;15.70;100.00;102257.72;1869655;76;21031;-73
2022/05/27 00:54:33;;;;;;;8.70;2.98;;;;;;;15.70;100.00;102261.19;1869407;76;21077;-73
2022/05/27 00:57:04;;;;;;;5.25;1.98;;;;;;;15.39;100.00;102264.84;1872853;76;21065;-73
2022/05/27 00:59:37;;;;;;;8.70;2.12;;;;;;;15.11;100.00;102258.13;1869308;76;21013;-73
2022/05/27 01:02:05;;;;;;;5.47;2.02;;;;;;;15.01;100.00;102248.56;1869462;76;21162;-73
2022/05/27 01:04:35;;;;;;;8.95;2.05;;;;;;;15.16;100.00;102248.70;1869221;76;21510;-73
2022/05/27 01:07:02;;;;;;;5.92;1.90;;;;;;;15.11;100.00;102241.30;1869497;76;21484;-73
2022/05/27 01:09:31;;;;;;;6.70;2.15;;;;;;;14.91;100.00;102236.80;1869597;76;21142;-73
2022/05/27 01:12:19;;;;;;;5.45;2.42;;;;;;;15.06;100.00;102233.52;1871819;76;21463;-73
2022/05/27 01:14:55;;;;;;;2.37;1.52;;;;;;;15.08;100.00;102238.27;1877000;76;21059;-73
2022/05/27 01:17:28;;;;;;;5.17;2.10;;;;;;;14.95;100.00;102236.42;1876881;76;21016;-73
2022/05/27 01:20:20;;;;;;;4.70;1.45;;;;;;;14.99;100.00;102234.30;1876561;76;21020;-73
2022/05/27 01:23:06;;;;;;;3.72;1.65;;;;;;;15.11;100.00;102238.71;1876913;76;21013;-73
2022/05/27 01:25:59;;;;;;;7.28;2.25;;;;;;;15.28;100.00;102237.98;1875271;76;21095;-73
2022/05/27 01:28:41;;;;;;;7.95;1.92;;;;;;;15.44;100.00;102242.88;1876965;76;21131;-73
2022/05/27 01:31:27;;;;;;;4.62;1.82;;;;;;;15.43;100.00;102241.14;1876551;76;21154;-73
2022/05/27 01:34:06;;;;;;;5.37;1.67;;;;;;;15.19;100.00;102237.05;1876803;76;21461;-73
2022/05/27 01:36:40;;;;;;;2.65;1.77;;;;;;;15.20;100.00;102237.52;1876752;76;21027;-73
2022/05/27 01:39:25;;;;;;;7.22;2.77;;;;;;;15.29;100.00;102234.11;1877170;76;21024;-73
2022/05/27 01:42:13;;;;;;;6.62;1.82;;;;;;;15.31;100.00;102236.30;1884480;74;21150;-73
2022/05/27 01:44:46;;;;;;;10.30;2.27;;;;;;;15.39;100.00;102230.33;1886124;76;21083;-73
2022/05/27 01:47:16;;;;;;;3.92;1.72;;;;;;;15.33;100.00;102227.25;1849807;76;21048;-73
2022/05/27 01:49:49;;;;;;;7.10;2.98;;;;;;;15.48;100.00;102227.79;1881635;76;21122;-73
2022/05/27 01:52:32;;;;;;;4.60;1.60;;;;;;;15.42;100.00;102227.31;1881921;76;21501;-73
2022/05/27 01:55:02;;;;;;;6.12;2.70;;;;;;;15.21;100.00;102221.13;1881378;76;21599;-73
2022/05/27 01:57:39;;;;;;;21.15;3.30;;;;;;;15.37;100.00;102222.54;1877958;76;21141;-73
2022/05/27 02:00:16;;;;;;;6.05;2.55;;;;;;;15.41;100.00;102222.12;1880838;76;21094;-73
2022/05/27 02:02:51;;;;;;;4.70;1.67;;;;;;;15.33;100.00;102221.62;1881646;76;21497;-73
2022/05/27 02:05:22;;;;;;;4.12;2.30;;;;;;;15.23;100.00;102223.73;1881793;76;21076;-73
2022/05/27 02:08:01;;;;;;;3.77;1.72;;;;;;;15.23;100.00;102226.31;1880577;76;21060;-73
2022/05/27 02:10:32;;;;;;;7.45;1.75;;;;;;;15.26;100.00;102222.47;1880535;76;21044;-73
2022/05/27 02:13:14;;;;;;;8.63;2.58;;;;;;;15.37;100.00;102218.66;1885217;76;21055;-73
2022/05/27 02:15:46;;;;;;;2.50;1.85;;;;;;;15.10;100.00;102216.28;1861955;76;21113;-73
2022/05/27 02:18:35;;;;;;;5.20;1.82;;;;;;;15.19;100.00;102218.93;1847777;76;21094;-73
2022/05/27 02:21:06;;;;;;;4.05;2.00;;;;;;;15.34;100.00;102212.15;1885755;76;21121;-73
2022/05/27 02:23:45;;;;;;;4.78;2.00;;;;;;;15.35;100.00;102216.47;1885993;76;20997;-73
2022/05/27 02:26:18;;;;;;;6.33;1.98;;;;;;;15.49;100.00;102213.98;1886167;76;21093;-73
2022/05/27 02:28:49;;;;;;;4.80;1.98;;;;;;;15.41;100.00;102216.94;1885998;76;21027;-73
2022/05/27 02:31:20;;;;;;;7.53;1.62;;;;;;;15.49;100.00;102216.56;1886361;76;21121;-73
2022/05/27 02:36:41;;;;;;;7.45;2.58;;;;;;;15.32;100.00;102211.29;1886056;76;21533;-73
2022/05/27 02:39:10;;;;;;;3.22;2.08;;;;;;;15.20;100.00;102209.45;1852044;76;21025;-73
2022/05/27 02:41:46;;;;;;;5.20;1.95;;;;;;;15.26;100.00;102206.05;1881294;75;21052;-73
2022/05/27 02:44:19;;;;;;;3.65;1.80;;;;;;;15.39;100.00;102196.66;1875853;76;21485;-73
2022/05/27 02:47:13;;;;;;;9.93;1.90;;;;;;;15.20;100.00;102196.52;1876885;76;21036;-73
2022/05/27 02:50:02;;;;;;;5.55;2.17;;;;;;;15.26;100.00;102199.58;1876525;76;21036;-73
2022/05/27 02:52:33;;;;;;;4.60;1.70;;;;;;;15.13;100.00;102198.19;1876618;76;21087;-73
2022/05/27 02:55:03;;;;;;;2.98;1.60;;;;;;;15.39;100.00;102197.50;1876641;76;21036;-73
2022/05/27 02:57:40;;;;;;;4.58;2.37;;;;;;;15.40;100.00;102197.09;1876730;75;20997;-73
2022/05/27 03:00:11;;;;;;;6.28;2.20;;;;;;;15.07;100.00;102194.24;1876808;76;21122;-73
2022/05/27 03:02:38;;;;;;;2.42;1.60;;;;;;;15.05;100.00;102189.50;1876259;76;21089;-73
2022/05/27 03:05:06;;;;;;;4.92;1.80;;;;;;;15.25;100.00;102191.38;1876515;76;21125;-73
2022/05/27 03:07:43;;;;;;;7.28;1.70;;;;;;;15.18;100.00;102193.91;1848619;77;21102;-73
2022/05/27 03:10:29;;;;;;;3.87;2.08;;;;;;;15.18;100.00;102197.79;1856304;76;21096;-74
2022/05/27 03:13:00;;;;;;;9.20;2.12;;;;;;;15.34;100.00;102203.09;1871264;76;21471;-73
2022/05/27 03:15:42;;;;;;;4.70;1.77;;;;;;;15.09;100.00;102206.34;1850712;76;21560;-73
2022/05/27 03:18:22;;;;;;;9.15;2.58;;;;;;;15.19;100.00;102199.52;1876341;76;21015;-73
2022/05/27 03:20:51;;;;;;;2.87;1.50;;;;;;;15.13;100.00;102194.72;1876487;76;21082;-73
2022/05/27 03:23:24;;;;;;;5.70;2.02;;;;;;;15.13;100.00;102201.20;1849921;76;21014;-73
2022/05/27 03:26:20;;;;;;;5.47;2.02;;;;;;;15.22;100.00;102191.78;1869014;76;21134;-73
2022/05/27 03:28:57;;;;;;;3.90;2.45;;;;;;;15.27;100.00;102194.83;1869040;76;21033;-73
2022/05/27 03:31:30;;;;;;;5.22;2.05;;;;;;;15.10;100.00;102198.16;1869142;76;21040;-73
2022/05/27 03:34:06;;;;;;;6.50;1.75;;;;;;;15.16;100.00;102186.98;1869371;76;21032;-73
2022/05/27 03:36:55;;;;;;;4.53;2.33;;;;;;;15.20;100.00;102191.33;1868945;76;21481;-73
2022/05/27 03:39:34;;;;;;;5.97;1.75;;;;;;;15.11;100.00;102192.56;1873893;76;21041;-73
2022/05/27 03:42:04;;;;;;;4.87;1.92;;;;;;;15.19;100.00;102181.39;1886520;75;21081;-73
2022/05/27 03:44:32;;;;;;;5.33;2.17;;;;;;;15.06;100.00;102184.34;1905908;74;21055;-73
2022/05/27 03:47:01;;;;;;;6.75;1.80;;;;;;;14.87;100.00;102189.76;1904916;75;21735;-73
2022/05/27 03:49:29;;;;;;;6.60;1.47;;;;;;;14.82;100.00;102187.56;1901761;75;21676;-73
2022/05/27 03:52:05;;;;;;;5.83;2.27;;;;;;;14.96;100.00;102183.39;1873792;75;21168;-73
2022/05/27 03:54:33;;;;;;;9.58;2.95;;;;;;;14.84;100.00;102188.46;1873922;75;21149;-73
2022/05/27 03:57:01;;;;;;;4.25;1.47;;;;;;;15.13;100.00;102190.84;1873668;75;21123;-73
2022/05/27 03:59:28;;;;;;;7.33;1.95;;;;;;;15.15;100.00;102189.14;1873663;75;21510;-73
2022/05/27 04:01:56;;;;;;;8.38;1.77;;;;;;;15.05;100.00;102186.46;1873724;75;21117;-73
2022/05/27 04:04:27;;;;;;;4.35;1.67;;;;;;;14.83;100.00;102188.00;1873640;75;21622;-73
2022/05/27 04:06:54;;;;;;;4.03;1.82;;;;;;;14.96;100.00;102191.16;1873920;75;21058;-73
2022/05/27 04:09:23;;;;;;;3.83;1.85;;;;;;;15.20;100.00;102192.63;1873509;75;21124;-73
2022/05/27 04:11:51;;;;;;;3.35;1.85;;;;;;;14.99;100.00;102195.91;1866300;75;21105;-73
2022/05/27 04:14:19;;;;;;;5.03;2.00;;;;;;;15.12;100.00;102192.58;1886512;75;21081;-73
2022/05/27 04:16:48;;;;;;;3.42;1.85;;;;;;;15.06;100.00;102193.81;1876988;75;21116;-73
2022/05/27 04:19:19;;;;;;;5.35;1.80;;;;;;;15.00;100.00;102193.33;1873485;75;21528;-73
2022/05/27 04:21:46;;;;;;;2.55;1.40;;;;;;;15.16;100.00;102194.75;1873393;75;21507;-73
2022/05/27 04:24:14;;;;;;;3.15;1.60;;;;;;;14.83;100.00;102195.34;1873788;75;21155;-73
2022/05/27 04:26:41;;;;;;;2.90;1.45;;;;;;;15.00;100.00;102195.92;1873578;75;21605;-73
2022/05/27 04:29:09;;;;;;;5.10;1.92;;;;;;;15.18;100.00;102198.20;1873950;75;21160;-73
2022/05/27 04:31:36;;;;;;;4.33;1.50;;;;;;;14.92;100.00;102194.57;1872794;75;21179;-73
2022/05/27 04:34:08;;;;;;;5.58;1.60;;;;;;;14.86;100.00;102197.09;1873663;75;21141;-73
2022/05/27 04:36:33;;;;;;;5.30;2.00;;;;;;;14.87;100.00;102199.27;1873624;75;21690;-73
2022/05/27 04:39:00;;;;;;;1.42;1.00;;;;;;;14.91;100.00;102197.98;1873954;75;21097;-73
2022/05/27 04:41:28;;;;;;;6.03;2.08;;;;;;;14.91;100.00;102195.41;1876678;74;21483;-74
2022/05/27 04:43:55;;;;;;;3.75;1.98;;;;;;;14.87;100.00;102202.70;1910650;75;20993;-73
2022/05/27 04:46:23;;;;;;;4.05;1.30;;;;;;;14.85;100.00;102204.42;1910784;75;21086;-73
2022/05/27 04:48:50;;;;;;;3.20;1.17;;;;;;;14.85;100.00;102201.83;1909447;74;21221;-73
2022/05/27 04:51:18;;;;;;;4.12;1.72;;;;;;;14.65;100.00;102201.59;1910630;75;21563;-73
2022/05/27 04:53:45;;;;;;;1.95;1.30;;;;;;;14.64;100.00;102202.04;1910449;73;21091;-73
2022/05/27 04:56:13;;;;;;;4.25;1.82;;;;;;;14.98;100.00;102205.82;1910676;74;21086;-73
2022/05/27 04:58:40;;;;;;;4.90;1.15;;;;;;;15.05;100.00;102208.91;1910608;73;20995;-73
2022/05/27 05:01:08;;;;;;;2.75;1.40;;;;;;;14.99;100.00;102201.95;1909919;75;21115;-73
2022/05/27 05:03:35;;;;;;;5.70;1.52;;;;;;;15.02;100.00;102207.17;1910713;75;21024;-73
2022/05/27 05:06:03;;;;;;;2.52;1.30;;;;;;;15.09;100.00;102211.97;1910596;75;21163;-73
2022/05/27 05:08:36;;;;;;;3.85;1.70;;;;;;;15.09;100.00;102208.08;1910750;75;21083;-73
2022/05/27 05:11:04;;;;;;;;;;;;;;;15.15;100.00;102209.86;1913577;74;21041;-73
2022/05/27 05:13:33;;;;;;;3.35;1.45;;;;;;;15.10;100.00;102213.69;1905900;74;20118;-73
2022/05/27 05:16:00;;;;;;;10.15;1.98;;;;;;;15.20;100.00;102212.05;1886518;74;21144;-75
2022/05/27 05:18:28;;;;;;;7.20;1.55;;;;;;;14.83;100.00;102208.70;1903037;75;21079;-75
2022/05/27 05:20:56;;;;;;;3.05;1.40;;;;;;;15.06;100.00;102215.81;1902627;75;21029;-75
2022/05/27 05:23:24;;;;;;;5.15;1.40;;;;;;;15.07;100.00;102217.54;1909143;75;21050;-75
2022/05/27 05:25:51;;;;;;;6.50;1.55;;;;;;;15.06;100.00;102218.41;1908870;74;21658;-75
2022/05/27 05:28:19;;;;;;;2.00;1.62;;;;;;;14.94;100.00;102220.02;1909847;75;21606;-75
2022/05/27 05:30:46;;;;;;;6.67;1.70;;;;;;;14.94;100.00;102212.26;1907116;74;21046;-75
2022/05/27 05:33:14;;;;;;;3.58;1.40;;;;;;;14.78;100.00;102216.85;1902532;75;21136;-75
2022/05/27 05:35:41;;;;;;;2.08;1.40;;;;;;;14.86;100.00;102215.20;1902501;75;21147;-75
2022/05/27 05:38:09;;;;;;;2.37;1.50;;;;;;;14.91;100.00;102215.26;1902991;75;21705;-75
2022/05/27 05:40:37;;;;;;;4.55;1.92;;;;;;;14.99;100.00;102220.08;1875723;76;21675;-75
2022/05/27 05:43:04;;;;;;;7.92;2.33;;;;;;;15.01;100.00;102214.47;1895095;74;21075;-75
2022/05/27 05:45:32;;;;;;;6.03;1.60;;;;;;;14.92;100.00;102217.86;1880306;74;21123;-75
2022/05/27 05:48:00;;;;;;;6.37;1.80;;;;;;;14.91;100.00;102220.43;1881229;76;21189;-75
2022/05/27 05:50:27;;;;;;;8.50;1.60;;;;;;;15.20;100.00;102225.87;1880577;76;21159;-76
2022/05/27 05:52:55;;;;;;;2.33;1.65;;;;;;;15.15;100.00;102226.23;1882845;76;21838;-75
2022/05/27 05:55:23;;;;;;;3.10;1.82;;;;;;;15.21;100.00;102229.30;1865638;76;21106;-75
2022/05/27 05:57:51;;;;;;;3.55;2.12;;;;;;;15.32;100.00;102229.42;1883134;75;21097;-75
2022/05/27 06:00:21;;;;;;;5.25;1.90;;;;;;;15.44;100.00;102235.98;1883779;76;21602;-75
2022/05/27 06:02:49;;;;;;;3.60;1.47;;;;;;;15.39;100.00;102244.12;1878655;76;21154;-75
2022/05/27 06:05:16;;;;;;;4.55;2.12;;;;;;;15.42;100.00;102236.38;1883744;76;21542;-75
2022/05/27 06:07:44;;;;;;;5.03;1.52;;;;;;;15.16;100.00;102242.65;1883149;76;21218;-75
2022/05/27 06:10:14;;;;;;;5.67;2.00;;;;;;;15.42;100.00;102248.03;1883792;76;21153;-75
2022/05/27 06:12:41;;;;;;;4.58;2.30;;;;;;;15.51;100.00;102252.42;1883577;75;21157;-75
2022/05/27 06:15:11;;;;;;;3.92;1.70;;;;;;;15.33;100.00;102247.97;1883481;74;21196;-75
2022/05/27 06:17:39;;;;;;;4.53;1.35;;;;;;;15.34;100.00;102242.81;1854471;76;21105;-75
2022/05/27 06:20:08;;;;;;;6.05;1.87;;;;;;;15.32;100.00;102250.98;1883463;76;21063;-75
2022/05/27 06:22:36;;;;;;;2.60;1.60;;;;;;;15.33;100.00;102250.11;1883687;76;21551;-75
2022/05/27 06:25:03;;;;;;;9.13;1.67;;;;;;;15.56;100.00;102253.31;1862859;75;21149;-75
2022/05/27 06:27:31;;;;;;;4.05;2.02;;;;;;;15.55;100.00;102254.59;1884158;75;21182;-75
2022/05/27 06:35:29;;;;;;;4.37;1.95;;;;;;;15.70;100.00;102253.41;1883359;76;21080;-75
2022/05/27 06:37:57;;;;;;;4.87;1.47;;;;;;;15.71;100.00;102259.47;1883024;76;21636;-75
2022/05/27 06:40:24;;;;;;;6.72;2.33;;;;;;;15.84;100.00;102257.80;1883964;76;21026;-75
2022/05/27 06:42:52;;;;;;;1.60;1.05;;;;;;;15.77;100.00;102256.91;1884109;74;21137;-75
2022/05/27 06:45:19;;;;;;;3.25;1.62;;;;;;;15.55;100.00;102252.00;1895108;75;21052;-75
2022/05/27 06:47:47;;;;;;;3.85;1.45;;;;;;;15.86;100.00;102252.22;1895181;75;21050;-75
2022/05/27 06:50:15;;;;;;;6.15;1.70;;;;;;;15.69;100.00;102253.39;1895824;75;21145;-75
2022/05/27 06:52:42;;;;;;;4.47;1.37;;;;;;;15.76;100.00;102249.99;1895694;75;21052;-75
2022/05/27 06:55:12;;;;;;;4.78;1.50;;;;;;;15.52;100.00;102252.86;1895796;75;21172;-75
2022/05/27 06:57:40;;;;;;;4.58;1.75;;;;;;;15.91;100.00;102251.80;1894689;75;21120;-75
2022/05/27 07:00:10;;;;;;;5.37;1.50;;;;;;;15.98;100.00;102252.76;1897011;75;21093;-75
2022/05/27 07:02:38;;;;;;;4.90;1.40;;;;;;;16.04;100.00;102258.38;1895949;75;21011;-75
2022/05/27 07:05:07;;;;;;;3.52;1.60;;;;;;;16.06;100.00;102254.08;1894665;75;21144;-76
2022/05/27 07:07:35;;;;;;;4.33;1.80;;;;;;;16.21;100.00;102258.47;1893394;75;21239;-75
2022/05/27 07:10:03;;;;;;;3.87;1.57;;;;;;;16.49;100.00;102256.86;1895710;75;21101;-75
2022/05/27 07:12:31;;;;;;;3.02;1.27;;;;;;;16.21;100.00;102273.61;1894884;75;21569;-75
2022/05/27 07:14:58;;;;;;;4.20;0.95;;;;;;;16.51;100.00;102268.09;1894621;75;21055;-75
2022/05/27 07:17:26;;;;;;;2.65;0.90;;;;;;;16.67;100.00;102272.03;1895195;75;21141;-75
2022/05/27 07:19:53;;;;;;;4.40;0.90;;;;;;;16.64;100.00;102275.91;1895165;74;21110;-75
2022/05/27 07:22:22;;;;;;;1.25;0.80;;;;;;;16.58;100.00;102270.72;1898182;75;21667;-75
2022/05/27 07:24:49;;;;;;;1.37;1.15;;;;;;;16.67;100.00;102273.78;1891188;75;21084;-75
2022/05/27 07:27:17;;;;;;;5.45;1.20;;;;;;;16.46;100.00;102272.83;1882029;76;21036;-74
2022/05/27 07:29:44;;;;;;;2.12;0.90;;;;;;;16.67;100.00;102273.33;1881777;76;21036;-72
2022/05/27 07:32:12;;;;;;;0.93;0.78;;;;;;;16.96;100.00;102281.63;1885635;75;21117;-72
2022/05/27 07:34:39;;;;;;;2.77;0.60;;;;;;;16.96;100.00;102290.72;1886199;76;21059;-72
2022/05/27 07:37:07;;;;;;;1.92;1.07;;;;;;;17.00;100.00;102287.27;1886225;76;21095;-72
2022/05/27 07:39:34;;;;;;;1.02;0.80;;;;;;;16.97;100.00;102290.27;1886306;76;21097;-72
2022/05/27 07:42:02;;;;;;;1.72;0.82;;;;;;;16.70;100.00;102294.10;1860068;76;21009;-72
2022/05/27 07:44:29;;;;;;;2.65;1.00;;;;;;;16.73;100.00;102296.72;1874330;75;21494;-72
2022/05/27 07:46:57;;;;;;;2.87;0.70;;;;;;;17.07;100.00;102292.48;1869571;76;21193;-72
2022/05/27 07:49:24;;;;;;;6.95;1.77;;;;;;;16.90;100.00;102295.88;1868314;76;21670;-72
2022/05/27 07:51:52;;;;;;;2.22;0.70;;;;;;;17.24;100.00;102297.28;1869366;76;21118;-72
2022/05/27 07:54:19;;;;;;;1.75;0.50;;;;;;;17.46;100.00;102302.46;1869490;76;21050;-72
2022/05/27 07:56:47;;;;;;;1.30;0.78;;;;;;;17.72;100.00;102300.30;1869560;76;21036;-72
2022/05/27 07:59:14;;;;;;;1.95;0.68;;;;;;;17.39;100.00;102296.83;1869384;76;21484;-72
2022/05/27 08:01:42;;;;;;;4.65;0.90;;;;;;;17.70;100.00;102294.22;1869552;76;21127;-73
2022/05/27 08:04:09;;;;;;;1.50;0.70;;;;;;;17.65;100.00;102297.27;1870374;75;21281;-72
2022/05/27 08:06:37;;;;;;;0.53;0.45;;;;;;;17.28;100.00;102299.01;1872890;76;21079;-72
2022/05/27 08:09:04;;;;;;;0.90;0.60;;;;;;;17.19;100.00;102293.78;1874609;76;21007;-72
2022/05/27 08:11:32;;;;;;;0.95;0.45;;;;;;;17.60;100.00;102295.08;1873240;76;21091;-73
2022/05/27 08:14:01;;;;;;;0.37;0.37;;;;;;;17.48;100.00;102296.84;1873598;76;21090;-72
2022/05/27 08:16:32;;;;;;;0.72;0.55;;;;;;;17.38;100.00;102296.41;1873290;75;21231;-72
2022/05/27 08:18:58;;;;;;;1.52;0.50;;;;;;;17.69;100.00;102292.92;1873720;76;21130;-72
2022/05/27 08:21:26;;;;;;;1.05;0.55;;;;;;;17.87;100.00;102296.80;1874340;76;21058;-72
2022/05/27 08:23:53;;;;;;;2.20;0.42;;;;;;;17.62;100.00;102292.94;1874097;75;21152;-72
2022/05/27 08:26:21;;;;;;;0.50;0.30;;;;;;;17.89;100.00;102296.80;1874645;76;21127;-72
2022/05/27 08:28:48;;;;;;;0.55;0.40;;;;;;;17.98;100.00;102288.96;1884035;76;21625;-72
2022/05/27 08:31:16;;;;;;;0.30;0.20;;;;;;;17.47;100.00;102296.39;1874729;76;21037;-72
2022/05/27 08:39:15;;;;;;;0.53;0.50;;;;;;;17.72;100.00;102289.02;1874368;76;21203;-72
2022/05/27 08:42:18;;;;;;;0.50;0.33;;;;;;;17.82;100.00;102292.02;1874493;76;21074;-73
2022/05/27 08:44:51;;;;;;;1.20;0.50;;;;;;;17.83;100.00;102288.57;1885212;74;21873;-72
2022/05/27 08:47:24;;;;;;;1.32;1.07;;;;;;;17.53;100.00;102282.11;1908796;74;21007;-72
2022/05/27 08:49:55;;;;;;;1.22;0.40;;;;;;;17.50;100.00;102290.33;1907717;75;22542;-72
2022/05/27 08:52:34;;;;;;;0.93;0.47;;;;;;;17.89;100.00;102290.30;1906537;74;21607;-72
2022/05/27 08:59:26;;;;;;;1.17;0.45;;;;;;;17.58;100.00;102292.52;1905828;73;21145;-72
2022/05/27 09:00:28;;;;;;;1.07;0.70;;;;;;;17.69;100.00;102292.49;1908658;75;21070;-72
2022/05/27 09:02:58;;;;;;;0.70;0.40;;;;;;;17.63;100.00;102285.98;1906459;73;21109;-73
2022/05/27 09:05:41;;;;;;;5.40;1.37;;;;;;;17.41;100.00;102287.31;1838046;76;21061;-73
2022/05/27 09:08:25;;;;;;;0.53;0.30;;;;;;;17.57;100.00;102279.52;1837864;76;21043;-72
2022/05/27 09:11:16;;;;;;;0.72;0.57;;;;;;;17.84;100.00;102280.31;1838353;76;21034;-72
2022/05/27 09:14:07;;;;;;;0.68;0.30;;;;;;;18.30;100.00;102284.13;1837152;77;21094;-73
2022/05/27 09:16:40;;;;;;;0.68;0.47;;;;;;;18.29;100.00;102281.52;1817891;76;21123;-73
2022/05/27 09:19:20;;;;;;;1.30;0.30;;;;;;;18.53;100.00;102283.16;1833548;76;21105;-72
2022/05/27 09:21:56;;;;;;;0.42;0.35;;;;;;;18.82;100.00;102276.03;1837250;77;21049;-72
2022/05/27 09:24:52;;;;;;;0.30;0.23;;;;;;;18.63;100.00;102283.09;1867536;76;21145;-73
2022/05/27 09:27:28;;;;;;;0.42;0.40;;;;;;;19.10;100.00;102284.98;1904364;74;21046;-73
2022/05/27 09:30:01;;;;;;;0.55;0.30;;;;;;;18.91;100.00;102281.63;1880366;75;21078;-72
2022/05/27 09:32:37;;;;;;;0.33;0.30;;;;;;;18.72;100.00;102284.34;1907393;74;21097;-72
2022/05/27 09:35:14;;;;;;;3.35;0.40;;;;;;;18.73;100.00;102284.79;1906019;74;21570;-72
2022/05/27 09:37:47;;;;;;;0.30;0.30;;;;;;;18.56;100.00;102283.15;1907873;74;21101;-73
2022/05/27 09:40:17;;;;;;;0.50;0.40;;;;;;;18.57;100.00;102281.39;1906212;75;21090;-72
2022/05/27 09:43:10;;;;;;;0.98;0.57;;;;;;;18.83;100.00;102278.63;1905744;74;21563;-72
2022/05/27 09:45:39;;;;;;;0.70;0.37;;;;;;;18.56;100.00;102280.97;1905979;74;21047;-73
2022/05/27 09:48:07;;;;;;;0.35;0.35;;;;;;;18.52;100.00;102286.64;1906408;74;21500;-73
2022/05/27 09:50:40;;;;;;;0.75;0.40;;;;;;;18.45;100.00;102278.43;1906907;74;21165;-73
2022/05/27 09:53:11;;;;;;;0.30;0.30;;;;;;;19.05;100.00;102277.63;1905273;74;21108;-73
2022/05/27 09:55:57;;;;;;;1.37;0.40;;;;;;;20.03;100.00;102278.53;1905942;74;21098;-72
2022/05/27 09:58:32;;;;;;;0.40;0.30;;;;;;;20.29;100.00;102284.73;1905818;74;21125;-73
2022/05/27 10:01:21;;;;;;;1.30;0.30;;;;;;;20.67;100.00;102280.31;1906348;74;21131;-73
2022/05/27 10:04:00;;;;;;;0.30;0.30;;;;;;;20.21;100.00;102284.81;1908122;74;21100;-72
2022/05/27 10:06:29;;;;;;;0.35;0.23;;;;;;;19.77;100.00;102287.03;1911348;74;21621;-73
2022/05/27 10:09:00;;;;;;;0.40;0.40;;;;;;;19.43;100.00;102282.13;1908334;75;21144;-72
2022/05/27 10:11:51;;;;;;;0.95;0.40;;;;;;;18.87;100.00;102283.83;1906117;74;21153;-72
2022/05/27 10:14:23;;;;;;;0.85;0.30;;;;;;;18.78;100.00;102272.59;1905182;75;21177;-72
2022/05/27 10:17:05;;;;;;;0.28;0.28;;;;;;;18.58;100.00;102266.20;1905750;74;21032;-72
2022/05/27 10:19:33;;;;;;;0.72;0.37;;;;;;;18.59;100.00;102265.77;1907741;74;21109;-72
2022/05/27 10:22:06;;;;;;;0.70;0.30;;;;;;;19.04;100.00;102267.66;1906822;73;21098;-72
2022/05/27 10:24:44;;;;;;;0.95;0.40;;;;;;;19.03;100.00;102268.52;1906001;75;21127;-72
2022/05/27 10:27:19;;;;;;;0.20;0.20;;;;;;;19.34;100.00;102265.70;1909544;74;21171;-72
2022/05/27 10:29:52;;;;;;;0.23;0.20;;;;;;;19.50;100.00;102275.98;1905815;74;21070;-73
2022/05/27 10:32:31;;;;;;;0.50;0.40;;;;;;;19.84;100.00;102279.58;1907060;74;21043;-73
2022/05/27 10:35:00;;;;;;;0.35;0.30;;;;;;;20.19;100.00;102272.68;1905057;74;21094;-72
2022/05/27 10:37:44;;;;;;;0.78;0.60;;;;;;;20.14;100.00;102276.64;1907303;74;21085;-73
2022/05/27 10:40:29;;;;;;;;;;;;;;;20.13;100.00;102270.16;1906409;73;21179;-72
2022/05/27 10:43:06;;;;;;;0.35;0.30;;;;;;;20.13;100.00;102277.53;1905970;74;20275;-73
2022/05/27 10:45:37;;;;;;;0.30;0.30;;;;;;;20.22;100.00;102263.52;1907237;75;21059;-73
2022/05/27 10:48:29;;;;;;;2.33;0.40;;;;;;;19.96;100.00;102268.55;1837644;76;21127;-72
2022/05/27 10:51:03;;;;;;;0.75;0.47;;;;;;;19.96;100.00;102268.55;1845478;77;21032;-72
2022/05/27 10:53:39;;;;;;;0.65;0.47;;;;;;;20.42;100.00;102263.70;1847705;77;21017;-73
2022/05/27 10:56:40;;;;;;;2.08;0.33;;;;;;;20.51;100.00;102249.20;1865472;75;21156;-73
2022/05/27 11:02:35;;;;;;;3.30;0.78;;;;;;;21.18;100.00;102251.28;1832770;77;21110;-73
2022/05/27 11:05:28;;;;;;;2.45;0.70;;;;;;;21.29;100.00;102251.09;1835353;77;21618;-73
2022/05/27 11:08:15;;;;;;;2.45;0.85;;;;;;;21.18;100.00;102251.28;1835439;77;21050;-73
2022/05/27 11:10:46;;;;;;;0.93;0.50;;;;;;;20.92;100.00;102247.33;1835341;77;21069;-73
2022/05/27 11:16:20;;;;;;;2.20;0.90;;;;;;;21.04;100.00;102241.90;1858033;75;21085;-73
2022/05/27 11:18:54;;;;;;;;;;;;;;;21.00;100.00;102247.63;1867583;75;21049;-73
2022/05/27 11:21:34;;;;;;;1.47;0.60;;;;;;;20.56;100.00;102242.16;1870319;76;20144;-73
2022/05/27 11:24:30;;;;;;;0.50;0.40;;;;;;;20.35;100.00;102241.58;1873420;76;21457;-73
2022/05/27 11:27:20;;;;;;;1.27;0.30;;;;;;;20.45;100.00;102244.08;1867378;75;21014;-73
2022/05/27 11:30:16;;;;;;;0.30;0.30;;;;;;;20.13;100.00;102244.07;1868831;76;21111;-73
2022/05/27 11:33:13;;;;;;;0.40;0.25;;;;;;;20.11;100.00;102247.54;1868421;75;21027;-72
2022/05/27 11:36:00;;;;;;;0.33;0.30;;;;;;;20.46;100.00;102240.13;1865499;75;21067;-72
2022/05/27 11:38:57;;;;;;;1.62;0.50;;;;;;;20.16;100.00;102237.48;1869680;76;21016;-72
2022/05/27 11:41:37;;;;;;;0.60;0.33;;;;;;;20.81;100.00;102224.84;1838981;76;21123;-72
2022/05/27 11:44:16;;;;;;;0.57;0.30;;;;;;;20.81;100.00;102224.84;1846725;76;21198;-72
2022/05/27 11:46:50;;;;;;;0.82;0.50;;;;;;;21.00;100.00;102232.39;1848573;76;21050;-72
2022/05/27 11:49:36;;;;;;;0.75;0.50;;;;;;;21.14;100.00;102233.03;1848370;77;21012;-72
2022/05/27 11:52:29;;;;;;;0.90;0.60;;;;;;;20.84;100.00;102226.53;1851502;76;21025;-72
2022/05/27 11:55:16;;;;;;;0.50;0.50;;;;;;;20.80;100.00;102224.39;1847489;77;21058;-72
2022/05/27 11:57:55;;;;;;;2.08;0.50;;;;;;;20.18;100.00;102227.45;1853201;76;21080;-72
2022/05/27 12:00:25;;;;;;;0.72;0.40;;;;;;;20.17;100.00;102223.12;1852109;77;21103;-72
2022/05/27 12:03:08;;;;;;;1.35;0.30;;;;;;;20.07;100.00;102225.44;1849310;76;21012;-72
2022/05/27 12:05:41;;;;;;;0.70;0.60;;;;;;;20.07;100.00;102221.53;1847641;76;21080;-72